createdAt,value
2018-07-12T19:26:50.492Z,2.47
2018-07-12T19:29:18.325Z,2.57
2018-07-12T19:31:46.260Z,3.33
2018-07-12T19:34:14.211Z,2.70
2018-07-12T19:36:42.041Z,3.07
2018-07-12T19:39:09.856Z,2.70
2018-07-12T19:41:37.775Z,2.87
2018-07-12T19:44:05.492Z,2.97
2018-07-12T19:46:33.338Z,2.60
2018-07-12T19:49:01.185Z,2.23
2018-07-12T19:51:29.012Z,2.47
2018-07-12T19:53:56.784Z,2.20
2018-07-12T19:56:24.576Z,2.20
2018-07-12T19:58:52.348Z,2.30
2018-07-12T20:01:20.217Z,2.40
2018-07-12T20:03:48.011Z,2.63
2018-07-12T20:06:15.916Z,2.57
2018-07-12T20:08:43.791Z,2.40
2018-07-12T20:11:11.561Z,2.30
2018-07-12T20:13:39.438Z,2.07
2018-07-12T20:16:07.345Z,2.70
2018-07-12T20:18:35.192Z,2.67
2018-07-12T20:21:03.043Z,2.60
2018-07-12T20:23:30.986Z,2.63
2018-07-12T20:25:58.909Z,3.13
2018-07-12T20:28:26.732Z,2.00
2018-07-12T20:30:54.558Z,2.70
2018-07-12T20:33:22.387Z,2.40
2018-07-12T20:35:50.397Z,2.63
2018-07-12T20:38:18.164Z,2.43
2018-07-12T20:40:46.070Z,3.10
2018-07-12T20:43:20.275Z,2.80
2018-07-12T20:45:48.915Z,2.87
2018-07-12T20:48:17.101Z,3.00
2018-07-12T20:50:45.113Z,2.90
2018-07-12T20:53:13.091Z,3.27
2018-07-12T20:55:41.014Z,2.70
2018-07-12T20:58:08.834Z,3.10
2018-07-12T21:00:36.618Z,2.80
2018-07-12T21:03:04.820Z,3.30
2018-07-12T21:05:32.696Z,3.20
2018-07-12T21:08:00.632Z,3.43
2018-07-12T21:10:28.581Z,5.63
2018-07-12T21:12:56.384Z,5.83
2018-07-12T21:15:24.379Z,4.80
2018-07-12T21:17:52.337Z,4.70
2018-07-12T21:20:20.360Z,3.97
2018-07-12T21:22:48.416Z,4.53
2018-07-12T21:25:16.287Z,4.27
2018-07-12T21:27:44.149Z,4.57
2018-07-12T21:30:12.094Z,3.63
2018-07-12T21:32:39.952Z,4.00
2018-07-12T21:35:08.241Z,3.10
2018-07-12T21:37:36.096Z,4.37
2018-07-12T21:40:04.081Z,5.00
2018-07-12T21:42:31.958Z,4.77
2018-07-12T21:44:59.817Z,4.47
2018-07-12T21:47:27.622Z,3.70
2018-07-12T21:49:55.493Z,4.60
2018-07-12T21:52:23.355Z,3.40
2018-07-12T21:54:51.142Z,3.60
2018-07-12T21:57:19.021Z,3.60
2018-07-12T21:59:46.924Z,3.43
2018-07-12T22:02:14.785Z,3.70
2018-07-12T22:04:42.620Z,3.70
2018-07-12T22:07:22.647Z,3.57
2018-07-12T22:09:50.529Z,3.63
2018-07-12T22:12:18.345Z,3.77
2018-07-12T22:14:46.194Z,3.40
2018-07-12T22:17:13.981Z,3.90
2018-07-12T22:19:41.829Z,3.60
2018-07-12T22:22:09.752Z,3.67
2018-07-12T22:24:37.593Z,3.57
2018-07-12T22:27:05.465Z,3.93
2018-07-12T22:29:33.333Z,3.23
2018-07-12T22:32:01.130Z,4.90
2018-07-12T22:34:28.968Z,3.80
2018-07-12T22:36:56.781Z,4.20
2018-07-12T22:39:24.617Z,4.00
2018-07-12T22:41:52.720Z,4.37
2018-07-12T22:44:20.411Z,5.00
2018-07-12T22:46:48.258Z,4.67
2018-07-12T22:49:16.045Z,4.93
2018-07-12T22:51:43.860Z,4.87
2018-07-12T22:54:11.720Z,4.77
2018-07-12T22:56:39.555Z,4.83
2018-07-12T22:59:07.381Z,4.43
2018-07-12T23:01:35.236Z,4.90
2018-07-12T23:04:03.104Z,4.17
2018-07-12T23:06:31.014Z,5.57
2018-07-12T23:08:58.792Z,4.53
2018-07-12T23:11:26.640Z,5.67
2018-07-12T23:13:54.453Z,5.70
2018-07-12T23:16:22.353Z,6.73
2018-07-12T23:18:50.163Z,6.37
2018-07-12T23:21:17.982Z,5.90
2018-07-12T23:23:45.788Z,4.90
2018-07-12T23:26:13.649Z,4.33
2018-07-12T23:28:41.481Z,5.00
2018-07-12T23:31:09.289Z,3.80
2018-07-12T23:33:37.053Z,3.87
2018-07-12T23:36:05.001Z,4.40
2018-07-12T23:38:32.812Z,4.53
2018-07-12T23:41:00.557Z,5.37
2018-07-12T23:43:28.401Z,4.67
2018-07-12T23:45:56.143Z,5.53
2018-07-12T23:48:23.998Z,4.43
2018-07-12T23:50:51.778Z,4.90
2018-07-12T23:53:19.544Z,6.00
2018-07-12T23:55:47.388Z,4.80
2018-07-12T23:58:15.181Z,5.40
